createdAt,value
2019-01-21T00:02:00.139Z,-0.20
2019-01-21T00:04:29.187Z,-0.30
2019-01-21T00:06:58.139Z,-0.30
2019-01-21T00:09:27.143Z,-0.40
2019-01-21T00:11:56.204Z,-0.40
2019-01-21T00:14:25.461Z,-0.50
2019-01-21T00:16:54.902Z,-0.50
2019-01-21T00:19:23.941Z,-0.50
2019-01-21T00:21:54.054Z,-0.40
2019-01-21T00:24:22.877Z,-0.40
2019-01-21T00:26:51.902Z,-0.40
2019-01-21T00:29:21.111Z,-0.50
2019-01-21T00:31:50.495Z,-0.50
2019-01-21T00:34:19.479Z,-0.50
2019-01-21T00:36:48.410Z,-0.50
2019-01-21T00:39:17.467Z,-0.40
2019-01-21T00:41:49.535Z,-0.50
2019-01-21T00:44:18.545Z,-0.40
2019-01-21T00:46:47.623Z,-0.40
2019-01-21T00:49:16.683Z,-0.40
2019-01-21T00:51:45.523Z,-0.30
2019-01-21T00:54:14.632Z,-0.30
2019-01-21T00:56:43.747Z,-0.30
2019-01-21T00:59:12.619Z,-0.20
2019-01-21T01:01:41.511Z,-0.20
2019-01-21T01:04:12.269Z,-0.20
2019-01-21T01:06:41.273Z,-0.20
2019-01-21T01:09:10.393Z,-0.20
2019-01-21T01:11:40.797Z,-0.20
2019-01-21T01:14:09.860Z,-0.30
2019-01-21T01:16:38.627Z,-0.30
2019-01-21T01:19:07.741Z,-0.30
2019-01-21T01:21:36.736Z,-0.40
2019-01-21T01:24:05.963Z,-0.40
2019-01-21T01:26:35.026Z,-0.40
2019-01-21T01:29:04.259Z,-0.40
2019-01-21T01:31:33.331Z,-0.50
2019-01-21T01:34:02.189Z,-0.50
2019-01-21T01:36:31.241Z,-0.60
2019-01-21T01:39:00.374Z,-0.60
2019-01-21T01:41:30.785Z,-0.60
2019-01-21T01:43:59.999Z,-0.60
2019-01-21T01:46:29.583Z,-0.70
2019-01-21T01:48:59.044Z,-0.60
2019-01-21T01:51:28.254Z,-0.60
2019-01-21T01:53:57.291Z,-0.60
2019-01-21T01:56:26.224Z,-0.60
2019-01-21T01:58:55.363Z,-0.60
2019-01-21T02:01:24.768Z,-0.70
2019-01-21T02:03:53.818Z,-0.70
2019-01-21T02:06:23.944Z,-0.70
2019-01-21T02:08:52.953Z,-0.80
2019-01-21T02:11:21.939Z,-0.80
2019-01-21T02:13:51.045Z,-0.90
2019-01-21T02:16:20.028Z,-0.90
2019-01-21T02:18:48.997Z,-0.90
2019-01-21T02:21:18.727Z,-0.90
2019-01-21T02:23:52.143Z,-0.90
2019-01-21T02:26:23.828Z,-0.90
2019-01-21T02:29:04.815Z,-0.90
2019-01-21T02:32:26.979Z,-0.90
2019-01-21T02:35:19.785Z,-0.80
2019-01-21T02:38:09.385Z,-0.80
2019-01-21T02:40:48.770Z,-0.80
2019-01-21T02:43:45.856Z,-0.70
2019-01-21T02:46:37.042Z,-0.70
2019-01-21T02:49:41.861Z,-0.70
2019-01-21T02:52:52.167Z,-0.70
2019-01-21T02:56:05.900Z,-0.60
2019-01-21T02:58:46.802Z,-0.70
2019-01-21T03:01:49.922Z,-0.70
2019-01-21T03:04:50.380Z,-0.80
2019-01-21T03:07:28.904Z,-0.80
2019-01-21T03:10:14.348Z,-0.90
2019-01-21T03:13:16.499Z,-0.90
2019-01-21T03:16:15.456Z,-0.90
2019-01-21T03:19:07.286Z,-0.90
2019-01-21T03:22:10.868Z,-0.90
2019-01-21T03:25:19.151Z,-0.90
2019-01-21T03:28:16.176Z,-0.80
2019-01-21T03:31:39.456Z,-0.80
2019-01-21T03:34:49.701Z,-0.80
2019-01-21T03:37:50.270Z,-0.80
2019-01-21T03:40:51.203Z,-0.80
2019-01-21T03:43:46.700Z,-0.80
2019-01-21T03:46:46.481Z,-0.80
2019-01-21T03:49:22.495Z,-0.80
2019-01-21T03:52:37.543Z,-0.90
2019-01-21T03:55:10.579Z,-0.90
2019-01-21T03:58:38.936Z,-0.90
2019-01-21T04:01:24.780Z,-0.90
2019-01-21T04:04:14.968Z,-1.00
2019-01-21T04:07:05.244Z,-1.00
2019-01-21T04:10:17.124Z,-1.10
2019-01-21T04:13:10.979Z,-1.20
2019-01-21T04:16:15.897Z,-1.30
2019-01-21T04:19:12.409Z,-1.20
2019-01-21T04:21:58.157Z,-1.20
2019-01-21T04:25:00.886Z,-1.30
2019-01-21T04:27:58.640Z,-1.30
2019-01-21T04:31:02.822Z,-1.30
2019-01-21T04:33:52.283Z,-1.30
2019-01-21T04:36:48.570Z,-1.30
2019-01-21T04:39:55.132Z,-1.20
2019-01-21T04:42:52.659Z,-1.20
2019-01-21T04:46:03.123Z,-1.30
2019-01-21T04:49:02.891Z,-1.30
2019-01-21T04:51:58.306Z,-1.30
2019-01-21T04:54:49.933Z,-1.30
2019-01-21T04:57:58.741Z,-1.30
2019-01-21T05:01:15.444Z,-1.20
2019-01-21T05:03:52.946Z,-1.10
2019-01-21T05:07:00.920Z,-1.10
2019-01-21T05:09:57.821Z,-1.20
2019-01-21T05:12:49.992Z,-1.20
2019-01-21T05:15:52.150Z,-1.20
2019-01-21T05:18:57.688Z,-1.20
2019-01-21T05:21:57.476Z,-1.20
2019-01-21T05:24:51.955Z,-1.10
2019-01-21T05:27:57.551Z,-1.10
2019-01-21T05:30:48.875Z,-1.10
2019-01-21T05:33:52.023Z,-1.10
2019-01-21T05:36:54.284Z,-1.10
2019-01-21T05:39:48.890Z,-1.10
2019-01-21T05:42:46.374Z,-1.00
2019-01-21T05:45:47.335Z,-1.10
2019-01-21T05:48:52.970Z,-1.10
2019-01-21T05:52:09.214Z,-1.10
2019-01-21T05:55:06.686Z,-1.10
2019-01-21T05:58:25.948Z,-1.10
2019-01-21T06:01:29.997Z,-1.00
2019-01-21T06:04:36.096Z,-1.00
2019-01-21T06:07:29.922Z,-1.00
2019-01-21T06:10:32.782Z,-1.00
2019-01-21T06:13:36.826Z,-1.10
2019-01-21T06:16:47.153Z,-1.10
2019-01-21T06:19:57.158Z,-1.10
2019-01-21T06:22:49.150Z,-1.10
2019-01-21T06:25:49.475Z,-1.20
2019-01-21T06:29:14.715Z,-1.20
2019-01-21T06:32:20.710Z,-1.20
2019-01-21T06:35:14.964Z,-1.10
2019-01-21T06:38:19.848Z,-1.10
2019-01-21T06:41:28.660Z,-1.00
2019-01-21T06:44:31.653Z,-1.00
2019-01-21T06:47:40.814Z,-0.90
2019-01-21T06:50:31.639Z,-0.90
2019-01-21T06:53:36.992Z,-0.90
2019-01-21T06:56:37.867Z,-1.00
2019-01-21T06:59:43.019Z,-1.00
2019-01-21T07:03:04.205Z,-1.10
2019-01-21T07:05:53.462Z,-1.20
2019-01-21T07:09:08.590Z,-1.20
2019-01-21T07:12:00.615Z,-1.20
2019-01-21T07:14:47.861Z,-1.20
2019-01-21T07:17:58.283Z,-1.20
2019-01-21T07:20:53.728Z,-1.10
2019-01-21T07:23:37.603Z,-1.10
2019-01-21T07:26:50.789Z,-0.90
2019-01-21T07:30:06.986Z,-0.90
2019-01-21T07:32:56.727Z,-0.80
2019-01-21T07:35:47.803Z,-0.80
2019-01-21T07:38:48.420Z,-0.80
2019-01-21T07:42:04.261Z,-0.80
2019-01-21T07:45:09.330Z,-0.80
2019-01-21T07:48:20.947Z,-0.80
2019-01-21T07:51:37.493Z,-0.80
2019-01-21T07:54:57.008Z,-0.80
2019-01-21T07:58:00.597Z,-0.80
2019-01-21T08:01:19.893Z,-0.70
2019-01-21T08:04:28.761Z,-0.80
2019-01-21T08:07:38.811Z,-0.70
2019-01-21T08:10:54.404Z,-0.70
2019-01-21T08:13:49.527Z,-0.60
2019-01-21T08:17:05.547Z,-0.60
2019-01-21T08:20:10.003Z,-0.50
2019-01-21T08:23:06.804Z,-0.50
2019-01-21T08:26:16.029Z,-0.50
2019-01-21T08:29:00.888Z,-0.50
2019-01-21T08:31:42.440Z,-0.50
2019-01-21T08:35:04.667Z,-0.40
2019-01-21T08:38:05.859Z,-0.50
2019-01-21T08:41:27.219Z,-0.40
2019-01-21T08:44:40.973Z,-0.40
2019-01-21T08:47:32.103Z,-0.30
2019-01-21T08:50:27.067Z,-0.30
2019-01-21T08:53:24.837Z,-0.40
2019-01-21T08:56:07.605Z,-0.30
2019-01-21T08:59:12.559Z,-0.30
2019-01-21T09:02:18.103Z,-0.30
2019-01-21T09:05:21.413Z,-0.30
2019-01-21T09:08:14.807Z,-0.30
2019-01-21T09:11:32.255Z,-0.40
2019-01-21T09:14:15.445Z,-0.50
2019-01-21T09:17:18.087Z,-0.50
2019-01-21T09:20:25.351Z,-0.50
2019-01-21T09:23:08.279Z,-0.50
2019-01-21T09:26:05.106Z,-0.40
2019-01-21T09:29:05.918Z,-0.40
2019-01-21T09:32:12.278Z,-0.50
2019-01-21T09:35:22.636Z,-0.60
2019-01-21T09:38:45.073Z,-0.60
2019-01-21T09:41:52.133Z,-0.60
2019-01-21T09:44:32.867Z,-0.50
2019-01-21T09:47:01.693Z,-0.40
2019-01-21T09:49:29.368Z,-0.40
2019-01-21T09:52:16.086Z,-0.30
2019-01-21T09:54:45.171Z,-0.20
2019-01-21T09:57:23.014Z,-0.20
2019-01-21T10:00:02.094Z,-0.10
2019-01-21T10:02:49.880Z,0.00
2019-01-21T10:05:19.588Z,0.00
2019-01-21T10:08:17.770Z,0.10
2019-01-21T10:11:32.390Z,0.10
2019-01-21T10:14:37.944Z,0.20
2019-01-21T10:17:32.329Z,0.20
2019-01-21T10:20:39.820Z,0.30
2019-01-21T10:23:53.132Z,0.30
2019-01-21T10:27:21.374Z,0.40
2019-01-21T10:30:34.541Z,0.40
2019-01-21T10:33:37.610Z,0.40
2019-01-21T10:37:18.422Z,0.50
2019-01-21T10:40:08.018Z,0.50
2019-01-21T10:43:13.219Z,0.40
2019-01-21T10:46:32.691Z,0.40
2019-01-21T10:49:33.167Z,0.60
2019-01-21T10:52:35.228Z,0.70
2019-01-21T10:55:14.536Z,0.80
2019-01-21T10:57:52.477Z,0.80
2019-01-21T11:01:17.754Z,0.80
2019-01-21T11:04:01.338Z,0.70
2019-01-21T11:07:01.724Z,0.50
2019-01-21T11:09:39.589Z,0.50
2019-01-21T11:12:32.597Z,0.70
2019-01-21T11:15:28.650Z,0.80
2019-01-21T11:18:38.503Z,0.80
2019-01-21T11:21:51.774Z,0.90
2019-01-21T11:25:10.607Z,0.90
2019-01-21T11:28:10.957Z,0.80
2019-01-21T11:31:03.257Z,0.90
2019-01-21T11:33:54.127Z,0.80
2019-01-21T11:36:52.740Z,0.80
2019-01-21T11:40:05.493Z,0.80
2019-01-21T11:43:20.862Z,0.80
2019-01-21T11:46:25.896Z,0.80
2019-01-21T11:49:14.380Z,0.80
2019-01-21T11:52:17.551Z,0.70
2019-01-21T11:55:34.288Z,0.50
2019-01-21T11:58:33.833Z,0.40
2019-01-21T12:01:22.340Z,0.50
2019-01-21T12:04:10.098Z,0.50
2019-01-21T12:06:48.558Z,0.50
2019-01-21T12:09:44.348Z,0.50
2019-01-21T12:12:32.766Z,0.50
2019-01-21T12:15:40.169Z,0.40
2019-01-21T12:18:39.524Z,0.40
2019-01-21T12:21:20.794Z,0.20
2019-01-21T12:24:07.352Z,0.10
2019-01-21T12:27:20.444Z,0.20
2019-01-21T12:30:25.048Z,0.30
2019-01-21T12:33:15.522Z,0.30
2019-01-21T12:35:55.618Z,0.30
2019-01-21T12:38:45.166Z,0.40
2019-01-21T12:41:52.501Z,0.30
2019-01-21T12:44:58.500Z,0.20
2019-01-21T12:47:39.758Z,0.10
2019-01-21T12:50:44.322Z,0.10
2019-01-21T12:53:29.247Z,0.10
2019-01-21T12:56:46.400Z,0.30
2019-01-21T12:59:39.358Z,0.40
2019-01-21T13:02:23.998Z,0.50
2019-01-21T13:05:01.716Z,0.40
2019-01-21T13:07:47.938Z,0.30
2019-01-21T13:10:47.985Z,0.10
2019-01-21T13:13:51.083Z,0.00
2019-01-21T13:17:00.565Z,-0.10
2019-01-21T13:20:05.335Z,-0.10
2019-01-21T13:22:58.535Z,-0.20
2019-01-21T13:25:49.853Z,-0.20
2019-01-21T13:28:37.409Z,-0.10
2019-01-21T13:31:40.877Z,0.20
2019-01-21T13:35:00.308Z,0.40
2019-01-21T13:38:04.933Z,0.50
2019-01-21T13:41:15.243Z,0.40
2019-01-21T13:43:58.879Z,0.40
2019-01-21T13:47:07.688Z,0.30
2019-01-21T13:50:01.557Z,0.20
2019-01-21T13:53:20.062Z,0.20
2019-01-21T13:56:29.448Z,0.20
2019-01-21T13:59:22.495Z,0.20
2019-01-21T14:02:06.196Z,0.30
2019-01-21T14:05:06.233Z,0.20
2019-01-21T14:08:28.918Z,0.20
2019-01-21T14:11:14.876Z,0.20
2019-01-21T14:13:53.713Z,0.20
2019-01-21T14:16:48.912Z,0.20
2019-01-21T14:19:46.060Z,0.30
2019-01-21T14:23:16.964Z,0.20
2019-01-21T14:26:27.373Z,0.20
2019-01-21T14:29:31.325Z,0.20
2019-01-21T14:32:40.466Z,0.10
2019-01-21T14:35:19.558Z,0.20
2019-01-21T14:38:31.571Z,0.20
2019-01-21T14:41:37.623Z,0.20
2019-01-21T14:44:42.823Z,0.20
2019-01-21T14:47:47.667Z,0.30
2019-01-21T14:50:52.171Z,0.30
2019-01-21T14:53:42.139Z,0.30
2019-01-21T14:56:15.266Z,0.30
2019-01-21T14:59:06.789Z,0.30
2019-01-21T15:01:54.028Z,0.30
2019-01-21T15:05:05.545Z,0.30
2019-01-21T15:08:02.475Z,0.20
2019-01-21T15:11:04.218Z,0.20
2019-01-21T15:13:56.825Z,0.10
2019-01-21T15:16:49.872Z,0.00
2019-01-21T15:19:30.601Z,0.00
2019-01-21T15:22:39.494Z,-0.20
2019-01-21T15:25:54.420Z,-0.20
2019-01-21T15:28:48.632Z,-0.20
2019-01-21T15:31:48.360Z,-0.30
2019-01-21T15:35:08.159Z,-0.40
2019-01-21T15:38:26.600Z,-0.40
2019-01-21T15:41:52.017Z,-0.40
2019-01-21T15:44:41.200Z,-0.50
2019-01-21T15:47:44.283Z,-0.50
2019-01-21T15:50:34.149Z,-0.60
2019-01-21T15:53:43.199Z,-0.60
2019-01-21T15:56:51.228Z,-0.60
2019-01-21T15:59:46.192Z,-0.60
2019-01-21T16:02:37.285Z,-0.60
2019-01-21T16:05:36.875Z,-0.60
2019-01-21T16:08:45.602Z,-0.60
2019-01-21T16:11:39.184Z,-0.60
2019-01-21T16:14:15.879Z,-0.60
2019-01-21T16:17:11.918Z,-0.60
2019-01-21T16:19:54.042Z,-0.50
2019-01-21T16:23:05.540Z,-0.60
2019-01-21T16:26:19.861Z,-0.60
2019-01-21T16:29:35.550Z,-0.60
2019-01-21T16:32:14.281Z,-0.70
2019-01-21T16:35:26.404Z,-0.70
2019-01-21T16:38:32.224Z,-0.70
2019-01-21T16:41:31.663Z,-0.70
2019-01-21T16:44:00.540Z,-0.80
2019-01-21T16:46:29.600Z,-0.80
2019-01-21T16:48:58.490Z,-0.80
2019-01-21T16:51:29.095Z,-0.90
2019-01-21T16:53:57.991Z,-0.90
2019-01-21T16:56:26.874Z,-0.90
2019-01-21T16:58:55.867Z,-0.90
2019-01-21T17:01:26.604Z,-0.90
2019-01-21T17:03:55.776Z,-0.90
2019-01-21T17:06:27.724Z,-0.90
2019-01-21T17:08:56.899Z,-0.90
2019-01-21T17:11:25.897Z,-0.90
2019-01-21T17:13:54.891Z,-0.90
2019-01-21T17:16:24.025Z,-0.90
2019-01-21T17:18:52.927Z,-0.90
2019-01-21T17:21:26.952Z,-1.00
2019-01-21T17:23:52.568Z,-1.00
2019-01-21T17:26:21.644Z,-1.00
2019-01-21T17:28:50.520Z,-1.10
2019-01-21T17:31:19.603Z,-1.10
2019-01-21T17:33:48.668Z,-1.20
2019-01-21T17:36:18.307Z,-1.30
2019-01-21T17:38:47.119Z,-1.30
2019-01-21T17:41:17.474Z,-1.40
2019-01-21T17:43:46.807Z,-1.50
2019-01-21T17:46:15.947Z,-1.50
2019-01-21T17:48:45.039Z,-1.60
2019-01-21T17:51:14.733Z,-1.60
2019-01-21T17:53:43.618Z,-1.70
2019-01-21T17:56:12.657Z,-1.70
2019-01-21T17:58:41.677Z,-1.70
2019-01-21T18:01:11.793Z,-1.70
2019-01-21T18:03:41.273Z,-1.70
2019-01-21T18:06:13.563Z,-1.70
2019-01-21T18:08:42.469Z,-1.70
2019-01-21T18:11:11.786Z,-1.70
2019-01-21T18:13:40.911Z,-1.70
2019-01-21T18:16:09.941Z,-1.70
2019-01-21T18:18:38.796Z,-1.70
2019-01-21T18:21:07.890Z,-1.70
2019-01-21T18:23:37.298Z,-1.60
2019-01-21T18:26:06.245Z,-1.60
2019-01-21T18:28:35.471Z,-1.60
2019-01-21T18:31:04.450Z,-1.60
2019-01-21T18:33:35.175Z,-1.60
2019-01-21T18:36:04.484Z,-1.60
2019-01-21T18:38:33.704Z,-1.60
2019-01-21T18:41:04.185Z,-1.50
2019-01-21T18:43:33.024Z,-1.50
2019-01-21T18:46:02.073Z,-1.50
2019-01-21T18:48:31.054Z,-1.50
2019-01-21T18:51:00.011Z,-1.50
2019-01-21T18:53:28.952Z,-1.40
2019-01-21T18:55:58.009Z,-1.40
2019-01-21T18:58:26.934Z,-1.40
2019-01-21T19:00:56.172Z,-1.50
2019-01-21T19:03:25.173Z,-1.40
2019-01-21T19:05:54.108Z,-1.40
2019-01-21T19:08:23.090Z,-1.50
2019-01-21T19:10:51.986Z,-1.50
2019-01-21T19:13:20.863Z,-1.50
2019-01-21T19:15:49.942Z,-1.50
2019-01-21T19:18:19.177Z,-1.60
2019-01-21T19:20:48.256Z,-1.60
2019-01-21T19:23:17.144Z,-1.60
2019-01-21T19:25:46.173Z,-1.50
2019-01-21T19:28:15.033Z,-1.50
2019-01-21T19:30:46.769Z,-1.50
2019-01-21T19:33:15.733Z,-1.50
2019-01-21T19:35:44.694Z,-1.40
2019-01-21T19:38:13.745Z,-1.40
2019-01-21T19:40:43.022Z,-1.30
2019-01-21T19:43:12.045Z,-1.30
2019-01-21T19:45:45.676Z,-1.30
2019-01-21T19:48:15.330Z,-1.30
2019-01-21T19:50:44.341Z,-1.30
2019-01-21T19:53:13.372Z,-1.30
2019-01-21T19:55:43.744Z,-1.30
2019-01-21T19:58:13.212Z,-1.30
2019-01-21T20:00:43.608Z,-1.20
2019-01-21T20:03:12.546Z,-1.20
2019-01-21T20:05:41.572Z,-1.10
2019-01-21T20:08:10.633Z,-1.10
2019-01-21T20:10:42.841Z,-1.10
2019-01-21T20:13:12.075Z,-1.10
2019-01-21T20:15:41.019Z,-1.10
2019-01-21T20:18:11.467Z,-1.10
2019-01-21T20:20:41.603Z,-1.10
2019-01-21T20:23:11.452Z,-1.20
2019-01-21T20:25:41.001Z,-1.30
2019-01-21T20:28:10.030Z,-1.40
2019-01-21T20:30:38.999Z,-1.40
2019-01-21T20:33:08.179Z,-1.50
2019-01-21T20:35:37.219Z,-1.60
2019-01-21T20:38:06.199Z,-1.70
2019-01-21T20:40:37.015Z,-1.70
2019-01-21T20:43:06.086Z,-1.70
2019-01-21T20:45:35.102Z,-1.70
2019-01-21T20:48:04.153Z,-1.70
2019-01-21T20:50:33.427Z,-1.70
2019-01-21T20:53:02.503Z,-1.70
2019-01-21T20:55:31.856Z,-1.60
2019-01-21T20:58:03.619Z,-1.60
2019-01-21T21:00:32.795Z,-1.60
2019-01-21T21:03:02.481Z,-1.60
2019-01-21T21:05:31.867Z,-1.60
2019-01-21T21:08:01.546Z,-1.70
2019-01-21T21:10:31.147Z,-1.70
2019-01-21T21:13:00.629Z,-1.70
2019-01-21T21:15:32.345Z,-1.70
2019-01-21T21:18:01.810Z,-1.80
2019-01-21T21:20:31.151Z,-1.70
2019-01-21T21:23:00.884Z,-1.70
2019-01-21T21:25:30.657Z,-1.70
2019-01-21T21:28:00.878Z,-1.60
2019-01-21T21:30:35.639Z,-1.70
2019-01-21T21:33:08.215Z,-1.70
2019-01-21T21:35:40.525Z,-1.70
2019-01-21T21:38:10.316Z,-1.70
2019-01-21T21:40:39.923Z,-1.70
2019-01-21T21:43:09.363Z,-1.70
2019-01-21T21:45:39.293Z,-1.70
2019-01-21T21:48:09.566Z,-1.70
2019-01-21T21:50:38.947Z,-1.80
2019-01-21T21:53:10.655Z,-1.90
2019-01-21T21:55:40.090Z,-2.00
2019-01-21T21:58:09.615Z,-2.10
2019-01-21T22:00:40.199Z,-2.10
2019-01-21T22:03:10.273Z,-2.20
2019-01-21T22:05:40.138Z,-2.20
2019-01-21T22:08:12.538Z,-2.30
2019-01-21T22:10:42.311Z,-2.30
2019-01-21T22:13:11.835Z,-2.20
2019-01-21T22:15:41.297Z,-2.20
2019-01-21T22:18:10.719Z,-2.10
2019-01-21T22:20:40.242Z,-2.10
2019-01-21T22:23:09.995Z,-2.10
2019-01-21T22:25:42.225Z,-2.00
2019-01-21T22:28:15.177Z,-2.10
2019-01-21T22:30:44.069Z,-2.10
2019-01-21T22:33:15.019Z,-2.10
2019-01-21T22:35:44.028Z,-2.10
2019-01-21T22:38:13.121Z,-2.10
2019-01-21T22:40:42.141Z,-2.20
2019-01-21T22:43:11.138Z,-2.20
2019-01-21T22:45:43.451Z,-2.20
2019-01-21T22:48:12.681Z,-2.20
2019-01-21T22:50:41.628Z,-2.30
2019-01-21T22:53:10.519Z,-2.30
2019-01-21T22:55:39.734Z,-2.30
2019-01-21T22:58:09.022Z,-2.40
2019-01-21T23:00:57.692Z,-2.40
2019-01-21T23:03:27.880Z,-2.50
2019-01-21T23:05:56.853Z,-2.50
2019-01-21T23:08:28.113Z,-2.50
2019-01-21T23:10:58.542Z,-2.50
2019-01-21T23:13:27.464Z,-2.50
2019-01-21T23:15:56.353Z,-2.60
2019-01-21T23:18:27.006Z,-2.60
2019-01-21T23:20:55.907Z,-2.60
2019-01-21T23:23:24.820Z,-2.60
2019-01-21T23:25:58.225Z,-2.60
2019-01-21T23:28:27.279Z,-2.60
2019-01-21T23:30:56.146Z,-2.60
2019-01-21T23:33:25.339Z,-2.70
2019-01-21T23:35:56.697Z,-2.70
2019-01-21T23:38:25.706Z,-2.80
2019-01-21T23:40:54.584Z,-2.70
2019-01-21T23:43:23.647Z,-2.80
2019-01-21T23:45:52.801Z,-2.80
2019-01-21T23:48:22.278Z,-2.80
2019-01-21T23:50:51.210Z,-2.80
2019-01-21T23:53:20.213Z,-2.80
2019-01-21T23:55:49.303Z,-2.80
2019-01-21T23:58:18.544Z,-2.80
